sensor_id;sensor_type;location;lat;lon;timestamp;pressure;altitude;pressure_sealevel;temperature;humidity
5146;BME280;2591;48.144;15.152;2022-11-20T00:00:53;76869.34;;;-144.65;100.00
5146;BME280;2591;48.144;15.152;2022-11-20T00:03:21;76873.44;;;-144.65;100.00
5146;BME280;2591;48.144;15.152;2022-11-20T00:05:49;76883.63;;;-144.65;100.00
5146;BME280;2591;48.144;15.152;2022-11-20T00:08:17;76877.50;;;-144.65;100.00
5146;BME280;2591;48.144;15.152;2022-11-20T00:10:45;76877.50;;;-144.65;100.00
5146;BME280;2591;48.144;15.152;2022-11-20T00:13:13;76885.66;;;-144.65;100.00
5146;BME280;2591;48.144;15.152;2022-11-20T00:15:43;76883.63;;;-144.65;100.00
5146;BME280;2591;48.144;15.152;2022-11-20T00:18:10;76885.66;;;-144.65;100.00
5146;BME280;2591;48.144;15.152;2022-11-20T00:20:38;76877.50;;;-144.65;100.00
5146;BME280;2591;48.144;15.152;2022-11-20T00:23:06;76869.34;;;-144.65;100.00
5146;BME280;2591;48.144;15.152;2022-11-20T00:25:34;76861.19;;;-144.65;100.00
5146;BME280;2591;48.144;15.152;2022-11-20T00:28:02;76863.25;;;-144.65;100.00
5146;BME280;2591;48.144;15.152;2022-11-20T00:30:30;76859.16;;;-144.65;100.00
5146;BME280;2591;48.144;15.152;2022-11-20T00:32:59;76865.28;;;-144.65;100.00
5146;BME280;2591;48.144;15.152;2022-11-20T00:35:27;76873.44;;;-144.65;100.00
5146;BME280;2591;48.144;15.152;2022-11-20T00:37:55;76865.28;;;-144.65;100.00
5146;BME280;2591;48.144;15.152;2022-11-20T00:40:23;76873.44;;;-144.65;100.00
5146;BME280;2591;48.144;15.152;2022-11-20T00:42:51;76873.44;;;-144.65;100.00
5146;BME280;2591;48.144;15.152;2022-11-20T00:45:18;76869.34;;;-144.65;100.00
5146;BME280;2591;48.144;15.152;2022-11-20T00:47:46;76875.47;;;-144.65;100.00
5146;BME280;2591;48.144;15.152;2022-11-20T00:50:16;76873.44;;;-144.65;100.00
5146;BME280;2591;48.144;15.152;2022-11-20T00:52:43;76877.50;;;-144.65;100.00
5146;BME280;2591;48.144;15.152;2022-11-20T00:55:11;76877.50;;;-144.65;100.00
5146;BME280;2591;48.144;15.152;2022-11-20T00:57:39;76881.59;;;-144.65;100.00
5146;BME280;2591;48.144;15.152;2022-11-20T01:00:08;76879.56;;;-144.65;100.00
5146;BME280;2591;48.144;15.152;2022-11-20T01:02:36;76879.56;;;-144.65;100.00
5146;BME280;2591;48.144;15.152;2022-11-20T01:05:04;76879.56;;;-144.65;100.00
5146;BME280;2591;48.144;15.152;2022-11-20T01:07:33;76869.34;;;-144.65;100.00
5146;BME280;2591;48.144;15.152;2022-11-20T01:10:01;76869.34;;;-144.65;100.00
5146;BME280;2591;48.144;15.152;2022-11-20T01:12:29;76867.31;;;-144.65;100.00
5146;BME280;2591;48.144;15.152;2022-11-20T01:14:57;76871.41;;;-144.65;100.00
5146;BME280;2591;48.144;15.152;2022-11-20T01:17:25;76859.16;;;-144.65;100.00
5146;BME280;2591;48.144;15.152;2022-11-20T01:19:53;76865.28;;;-144.65;100.00
5146;BME280;2591;48.144;15.152;2022-11-20T01:22:21;76871.41;;;-144.65;100.00
5146;BME280;2591;48.144;15.152;2022-11-20T01:24:50;76871.41;;;-144.65;100.00
5146;BME280;2591;48.144;15.152;2022-11-20T01:27:18;76861.19;;;-144.65;100.00
5146;BME280;2591;48.144;15.152;2022-11-20T01:29:45;76861.19;;;-144.65;100.00
5146;BME280;2591;48.144;15.152;2022-11-20T01:32:13;76853.03;;;-144.65;100.00
5146;BME280;2591;48.144;15.152;2022-11-20T01:34:41;76855.09;;;-144.65;100.00
5146;BME280;2591;48.144;15.152;2022-11-20T01:37:09;76848.97;;;-144.65;100.00
5146;BME280;2591;48.144;15.152;2022-11-20T01:39:37;76853.03;;;-144.65;100.00
5146;BME280;2591;48.144;15.152;2022-11-20T01:42:07;76855.09;;;-144.65;100.00
5146;BME280;2591;48.144;15.152;2022-11-20T01:44:54;76842.84;;;-144.65;100.00
5146;BME280;2591;48.144;15.152;2022-11-20T01:47:30;76838.78;;;-144.65;100.00
5146;BME280;2591;48.144;15.152;2022-11-20T01:50:04;76836.72;;;-144.65;100.00
5146;BME280;2591;48.144;15.152;2022-11-20T01:52:34;76836.72;;;-144.65;100.00
5146;BME280;2591;48.144;15.152;2022-11-20T01:55:07;76838.78;;;-144.65;100.00
5146;BME280;2591;48.144;15.152;2022-11-20T01:57:38;76844.88;;;-144.65;100.00
5146;BME280;2591;48.144;15.152;2022-11-20T02:00:10;76842.84;;;-144.65;100.00
5146;BME280;2591;48.144;15.152;2022-11-20T02:02:39;76848.97;;;-144.65;100.00
5146;BME280;2591;48.144;15.152;2022-11-20T02:05:14;76857.13;;;-144.65;100.00
5146;BME280;2591;48.144;15.152;2022-11-20T02:07:45;76861.19;;;-144.65;100.00
5146;BME280;2591;48.144;15.152;2022-11-20T02:10:14;76853.03;;;-144.65;100.00
5146;BME280;2591;48.144;15.152;2022-11-20T02:12:43;76857.13;;;-144.65;100.00
5146;BME280;2591;48.144;15.152;2022-11-20T02:15:29;76861.19;;;-144.65;100.00
5146;BME280;2591;48.144;15.152;2022-11-20T02:17:57;76859.16;;;-144.65;100.00
5146;BME280;2591;48.144;15.152;2022-11-20T02:20:25;76859.16;;;-144.65;100.00
5146;BME280;2591;48.144;15.152;2022-11-20T02:22:56;76855.09;;;-144.65;100.00
5146;BME280;2591;48.144;15.152;2022-11-20T02:25:27;76857.13;;;-144.65;100.00
5146;BME280;2591;48.144;15.152;2022-11-20T02:27:56;76857.13;;;-144.65;100.00
5146;BME280;2591;48.144;15.152;2022-11-20T02:30:24;76853.03;;;-144.65;100.00
5146;BME280;2591;48.144;15.152;2022-11-20T02:32:52;76848.97;;;-144.65;100.00
5146;BME280;2591;48.144;15.152;2022-11-20T02:35:41;76848.97;;;-144.65;100.00
5146;BME280;2591;48.144;15.152;2022-11-20T02:38:10;76846.94;;;-144.65;100.00
5146;BME280;2591;48.144;15.152;2022-11-20T02:40:39;76838.78;;;-144.65;100.00
5146;BME280;2591;48.144;15.152;2022-11-20T02:43:08;76840.81;;;-144.65;100.00
5146;BME280;2591;48.144;15.152;2022-11-20T02:45:36;76840.81;;;-144.65;100.00
5146;BME280;2591;48.144;15.152;2022-11-20T02:48:05;76846.94;;;-144.65;100.00
5146;BME280;2591;48.144;15.152;2022-11-20T02:50:36;76844.88;;;-144.65;100.00
5146;BME280;2591;48.144;15.152;2022-11-20T02:53:04;76853.03;;;-144.65;100.00
5146;BME280;2591;48.144;15.152;2022-11-20T02:55:32;76865.28;;;-144.65;100.00
5146;BME280;2591;48.144;15.152;2022-11-20T02:58:01;76869.34;;;-144.65;100.00
5146;BME280;2591;48.144;15.152;2022-11-20T03:00:29;76871.41;;;-144.65;100.00
5146;BME280;2591;48.144;15.152;2022-11-20T03:02:58;76861.19;;;-144.65;100.00
5146;BME280;2591;48.144;15.152;2022-11-20T03:05:26;76853.03;;;-144.65;100.00
5146;BME280;2591;48.144;15.152;2022-11-20T03:07:54;76840.81;;;-144.65;100.00
5146;BME280;2591;48.144;15.152;2022-11-20T03:10:21;76832.66;;;-144.65;100.00
5146;BME280;2591;48.144;15.152;2022-11-20T03:12:53;76826.53;;;-144.65;100.00
5146;BME280;2591;48.144;15.152;2022-11-20T03:15:23;76824.50;;;-144.65;100.00
5146;BME280;2591;48.144;15.152;2022-11-20T03:17:53;76828.56;;;-144.65;100.00
5146;BME280;2591;48.144;15.152;2022-11-20T03:20:21;76834.69;;;-144.65;100.00
5146;BME280;2591;48.144;15.152;2022-11-20T03:22:49;76822.47;;;-144.65;100.00
5146;BME280;2591;48.144;15.152;2022-11-20T03:25:17;76820.41;;;-144.65;100.00
5146;BME280;2591;48.144;15.152;2022-11-20T03:27:45;76820.41;;;-144.65;100.00
5146;BME280;2591;48.144;15.152;2022-11-20T03:30:13;76820.41;;;-144.65;100.00
5146;BME280;2591;48.144;15.152;2022-11-20T03:32:42;76820.41;;;-144.65;100.00
5146;BME280;2591;48.144;15.152;2022-11-20T03:35:10;76816.34;;;-144.65;100.00
5146;BME280;2591;48.144;15.152;2022-11-20T03:37:38;76814.31;;;-144.65;100.00
5146;BME280;2591;48.144;15.152;2022-11-20T03:40:07;76814.31;;;-144.65;100.00
5146;BME280;2591;48.144;15.152;2022-11-20T03:42:35;76820.41;;;-144.65;100.00
5146;BME280;2591;48.144;15.152;2022-11-20T03:45:16;76836.72;;;-144.65;100.00
5146;BME280;2591;48.144;15.152;2022-11-20T03:47:45;76832.66;;;-144.65;100.00
5146;BME280;2591;48.144;15.152;2022-11-20T03:50:13;76822.47;;;-144.65;100.00
5146;BME280;2591;48.144;15.152;2022-11-20T03:52:42;76826.53;;;-144.65;100.00
5146;BME280;2591;48.144;15.152;2022-11-20T03:55:10;76828.56;;;-144.65;100.00
5146;BME280;2591;48.144;15.152;2022-11-20T03:57:38;76820.41;;;-144.65;100.00
5146;BME280;2591;48.144;15.152;2022-11-20T04:00:06;76814.31;;;-144.65;100.00
5146;BME280;2591;48.144;15.152;2022-11-20T04:02:34;76836.72;;;-144.65;100.00
5146;BME280;2591;48.144;15.152;2022-11-20T04:05:04;76848.97;;;-144.65;100.00
5146;BME280;2591;48.144;15.152;2022-11-20T04:07:33;76836.72;;;-144.65;100.00
5146;BME280;2591;48.144;15.152;2022-11-20T04:10:02;76832.66;;;-144.65;100.00
5146;BME280;2591;48.144;15.152;2022-11-20T04:12:32;76838.78;;;-144.65;100.00
5146;BME280;2591;48.144;15.152;2022-11-20T04:15:00;76840.81;;;-144.65;100.00
5146;BME280;2591;48.144;15.152;2022-11-20T04:17:27;76836.72;;;-144.65;100.00
5146;BME280;2591;48.144;15.152;2022-11-20T04:19:55;76812.25;;;-144.65;100.00
5146;BME280;2591;48.144;15.152;2022-11-20T04:22:24;76808.19;;;-144.65;100.00
5146;BME280;2591;48.144;15.152;2022-11-20T04:24:53;76816.34;;;-144.65;100.00
5146;BME280;2591;48.144;15.152;2022-11-20T04:27:21;76804.09;;;-144.65;100.00
5146;BME280;2591;48.144;15.152;2022-11-20T04:29:49;76785.75;;;-144.65;100.00
5146;BME280;2591;48.144;15.152;2022-11-20T04:32:17;76787.78;;;-144.65;100.00
5146;BME280;2591;48.144;15.152;2022-11-20T04:34:44;76779.63;;;-144.65;100.00
5146;BME280;2591;48.144;15.152;2022-11-20T04:37:12;76777.59;;;-144.65;100.00
5146;BME280;2591;48.144;15.152;2022-11-20T04:39:42;76767.41;;;-144.65;100.00
5146;BME280;2591;48.144;15.152;2022-11-20T04:42:10;76759.25;;;-144.65;100.00
5146;BME280;2591;48.144;15.152;2022-11-20T04:44:51;76763.31;;;-144.65;100.00
5146;BME280;2591;48.144;15.152;2022-11-20T04:47:19;76771.47;;;-144.65;100.00
5146;BME280;2591;48.144;15.152;2022-11-20T04:49:47;76771.47;;;-144.65;100.00
5146;BME280;2591;48.144;15.152;2022-11-20T04:52:15;76763.31;;;-144.65;100.00
5146;BME280;2591;48.144;15.152;2022-11-20T04:54:44;76767.41;;;-144.65;100.00
5146;BME280;2591;48.144;15.152;2022-11-20T04:57:13;76767.41;;;-144.65;100.00
5146;BME280;2591;48.144;15.152;2022-11-20T04:59:41;76767.41;;;-144.65;100.00
5146;BME280;2591;48.144;15.152;2022-11-20T05:02:10;76775.56;;;-144.65;100.00
5146;BME280;2591;48.144;15.152;2022-11-20T05:04:37;76771.47;;;-144.65;100.00
5146;BME280;2591;48.144;15.152;2022-11-20T05:07:05;76769.44;;;-144.65;100.00
5146;BME280;2591;48.144;15.152;2022-11-20T05:09:33;76767.41;;;-144.65;100.00
5146;BME280;2591;48.144;15.152;2022-11-20T05:12:03;76759.25;;;-144.65;100.00
5146;BME280;2591;48.144;15.152;2022-11-20T05:14:31;76759.25;;;-144.65;100.00
5146;BME280;2591;48.144;15.152;2022-11-20T05:16:58;76759.25;;;-144.65;100.00
5146;BME280;2591;48.144;15.152;2022-11-20T05:19:26;76751.09;;;-144.65;100.00
5146;BME280;2591;48.144;15.152;2022-11-20T05:21:54;76755.16;;;-144.65;100.00
5146;BME280;2591;48.144;15.152;2022-11-20T05:24:22;76759.25;;;-144.65;100.00
5146;BME280;2591;48.144;15.152;2022-11-20T05:26:50;76757.19;;;-144.65;100.00
5146;BME280;2591;48.144;15.152;2022-11-20T05:29:19;76757.19;;;-144.65;100.00
5146;BME280;2591;48.144;15.152;2022-11-20T05:31:47;76759.25;;;-144.65;100.00
5146;BME280;2591;48.144;15.152;2022-11-20T05:34:15;76757.19;;;-144.65;100.00
5146;BME280;2591;48.144;15.152;2022-11-20T05:36:43;76751.09;;;-144.65;100.00
5146;BME280;2591;48.144;15.152;2022-11-20T05:39:11;76749.03;;;-144.65;100.00
5146;BME280;2591;48.144;15.152;2022-11-20T05:41:38;76738.84;;;-144.65;100.00
5146;BME280;2591;48.144;15.152;2022-11-20T05:44:06;76738.84;;;-144.65;100.00
5146;BME280;2591;48.144;15.152;2022-11-20T05:46:36;76740.88;;;-144.65;100.00
5146;BME280;2591;48.144;15.152;2022-11-20T05:49:03;76734.78;;;-144.65;100.00
5146;BME280;2591;48.144;15.152;2022-11-20T05:51:31;76738.84;;;-144.65;100.00
5146;BME280;2591;48.144;15.152;2022-11-20T05:53:59;76738.84;;;-144.65;100.00
5146;BME280;2591;48.144;15.152;2022-11-20T05:56:27;76734.78;;;-144.65;100.00
5146;BME280;2591;48.144;15.152;2022-11-20T05:58:55;76734.78;;;-144.65;100.00
5146;BME280;2591;48.144;15.152;2022-11-20T06:01:25;76738.84;;;-144.65;100.00
5146;BME280;2591;48.144;15.152;2022-11-20T06:03:54;76738.84;;;-144.65;100.00
5146;BME280;2591;48.144;15.152;2022-11-20T06:06:23;76736.81;;;-144.65;100.00
5146;BME280;2591;48.144;15.152;2022-11-20T06:08:51;76736.81;;;-144.65;100.00
5146;BME280;2591;48.144;15.152;2022-11-20T06:11:19;76736.81;;;-144.65;100.00
5146;BME280;2591;48.144;15.152;2022-11-20T06:13:48;76738.84;;;-144.65;100.00
5146;BME280;2591;48.144;15.152;2022-11-20T06:16:17;76738.84;;;-144.65;100.00
5146;BME280;2591;48.144;15.152;2022-11-20T06:18:46;76736.81;;;-144.65;100.00
5146;BME280;2591;48.144;15.152;2022-11-20T06:21:17;76738.84;;;-144.65;100.00
5146;BME280;2591;48.144;15.152;2022-11-20T06:23:46;76740.88;;;-144.65;100.00
5146;BME280;2591;48.144;15.152;2022-11-20T06:26:15;76738.84;;;-144.65;100.00
5146;BME280;2591;48.144;15.152;2022-11-20T06:28:44;76738.84;;;-144.65;100.00
5146;BME280;2591;48.144;15.152;2022-11-20T06:31:14;76736.81;;;-144.65;100.00
5146;BME280;2591;48.144;15.152;2022-11-20T06:33:42;76738.84;;;-144.65;100.00
5146;BME280;2591;48.144;15.152;2022-11-20T06:36:11;76732.72;;;-144.65;100.00
5146;BME280;2591;48.144;15.152;2022-11-20T06:38:41;76722.53;;;-144.65;100.00
5146;BME280;2591;48.144;15.152;2022-11-20T06:41:12;76722.53;;;-144.65;100.00
5146;BME280;2591;48.144;15.152;2022-11-20T06:43:40;76718.47;;;-144.65;100.00
5146;BME280;2591;48.144;15.152;2022-11-20T06:46:09;76720.50;;;-144.65;100.00
5146;BME280;2591;48.144;15.152;2022-11-20T06:48:37;76718.47;;;-144.65;100.00
5146;BME280;2591;48.144;15.152;2022-11-20T06:51:07;76718.47;;;-144.65;100.00
5146;BME280;2591;48.144;15.152;2022-11-20T06:53:35;76720.50;;;-144.65;100.00
5146;BME280;2591;48.144;15.152;2022-11-20T06:56:06;76716.41;;;-144.65;100.00
5146;BME280;2591;48.144;15.152;2022-11-20T06:58:35;76716.41;;;-144.65;100.00
5146;BME280;2591;48.144;15.152;2022-11-20T07:01:04;76718.47;;;-144.65;100.00
5146;BME280;2591;48.144;15.152;2022-11-20T07:03:33;76712.34;;;-144.65;100.00
5146;BME280;2591;48.144;15.152;2022-11-20T07:06:02;76712.34;;;-144.65;100.00
5146;BME280;2591;48.144;15.152;2022-11-20T07:08:30;76706.22;;;-144.65;100.00
5146;BME280;2591;48.144;15.152;2022-11-20T07:10:59;76708.25;;;-144.65;100.00
5146;BME280;2591;48.144;15.152;2022-11-20T07:13:29;76702.16;;;-144.65;100.00
5146;BME280;2591;48.144;15.152;2022-11-20T07:15:59;76687.88;;;-144.65;100.00
5146;BME280;2591;48.144;15.152;2022-11-20T07:18:28;76681.75;;;-144.65;100.00
5146;BME280;2591;48.144;15.152;2022-11-20T07:20:55;76689.91;;;-144.65;100.00
5146;BME280;2591;48.144;15.152;2022-11-20T07:23:23;76694.00;;;-144.65;100.00
5146;BME280;2591;48.144;15.152;2022-11-20T07:25:51;76685.81;;;-144.65;100.00
5146;BME280;2591;48.144;15.152;2022-11-20T07:28:19;76681.75;;;-144.65;100.00
5146;BME280;2591;48.144;15.152;2022-11-20T07:30:51;76683.78;;;-144.65;100.00
5146;BME280;2591;48.144;15.152;2022-11-20T07:33:19;76677.69;;;-144.65;100.00
5146;BME280;2591;48.144;15.152;2022-11-20T07:35:47;76679.72;;;-144.65;100.00
5146;BME280;2591;48.144;15.152;2022-11-20T07:38:15;76685.81;;;-144.65;100.00
5146;BME280;2591;48.144;15.152;2022-11-20T07:40:42;76689.91;;;-144.65;100.00
5146;BME280;2591;48.144;15.152;2022-11-20T07:43:10;76687.88;;;-144.65;100.00
5146;BME280;2591;48.144;15.152;2022-11-20T07:45:38;76683.78;;;-144.65;100.00
5146;BME280;2591;48.144;15.152;2022-11-20T07:48:07;76679.72;;;-144.65;100.00
5146;BME280;2591;48.144;15.152;2022-11-20T07:50:35;76677.69;;;-144.65;100.00
5146;BME280;2591;48.144;15.152;2022-11-20T07:53:04;76673.59;;;-144.65;100.00
5146;BME280;2591;48.144;15.152;2022-11-20T07:55:32;76673.59;;;-144.65;100.00
5146;BME280;2591;48.144;15.152;2022-11-20T07:58:00;76675.63;;;-144.65;100.00
5146;BME280;2591;48.144;15.152;2022-11-20T08:00:28;76665.44;;;-144.65;100.00
5146;BME280;2591;48.144;15.152;2022-11-20T08:02:56;76667.47;;;-144.65;100.00
5146;BME280;2591;48.144;15.152;2022-11-20T08:05:25;76673.59;;;-144.65;100.00
5146;BME280;2591;48.144;15.152;2022-11-20T08:07:53;76669.53;;;-144.65;100.00
5146;BME280;2591;48.144;15.152;2022-11-20T08:10:21;76661.38;;;-144.65;100.00
5146;BME280;2591;48.144;15.152;2022-11-20T08:12:50;76661.38;;;-144.65;100.00
5146;BME280;2591;48.144;15.152;2022-11-20T08:15:36;76651.16;;;-144.65;100.00
5146;BME280;2591;48.144;15.152;2022-11-20T08:18:05;76655.25;;;-144.65;100.00
5146;BME280;2591;48.144;15.152;2022-11-20T08:20:55;76645.03;;;-144.65;100.00
5146;BME280;2591;48.144;15.152;2022-11-20T08:23:23;76649.13;;;-144.65;100.00
5146;BME280;2591;48.144;15.152;2022-11-20T08:25:51;76653.19;;;-144.65;100.00
5146;BME280;2591;48.144;15.152;2022-11-20T08:28:19;76649.13;;;-144.65;100.00
5146;BME280;2591;48.144;15.152;2022-11-20T08:30:48;76649.13;;;-144.65;100.00
5146;BME280;2591;48.144;15.152;2022-11-20T08:33:17;76649.13;;;-144.65;100.00
5146;BME280;2591;48.144;15.152;2022-11-20T08:35:45;76628.72;;;-144.65;100.00
5146;BME280;2591;48.144;15.152;2022-11-20T08:38:14;76616.50;;;-144.65;100.00
5146;BME280;2591;48.144;15.152;2022-11-20T08:40:42;76604.28;;;-144.65;100.00
5146;BME280;2591;48.144;15.152;2022-11-20T08:43:31;76590.00;;;-144.65;100.00
5146;BME280;2591;48.144;15.152;2022-11-20T08:46:00;76577.75;;;-144.65;100.00
5146;BME280;2591;48.144;15.152;2022-11-20T08:48:28;76569.59;;;-144.65;100.00
5146;BME280;2591;48.144;15.152;2022-11-20T08:50:57;76561.44;;;-144.65;100.00
5146;BME280;2591;48.144;15.152;2022-11-20T08:53:27;76551.25;;;-144.65;100.00
5146;BME280;2591;48.144;15.152;2022-11-20T08:55:56;76543.09;;;-144.65;100.00
5146;BME280;2591;48.144;15.152;2022-11-20T08:58:25;76536.97;;;-144.65;100.00
5146;BME280;2591;48.144;15.152;2022-11-20T09:00:53;76522.69;;;-144.65;100.00
5146;BME280;2591;48.144;15.152;2022-11-20T09:03:21;76514.53;;;-144.65;100.00
5146;BME280;2591;48.144;15.152;2022-11-20T09:05:58;76514.53;;;-144.65;100.00
5146;BME280;2591;48.144;15.152;2022-11-20T09:08:28;76510.47;;;-144.65;100.00
5146;BME280;2591;48.144;15.152;2022-11-20T09:10:57;76514.53;;;-144.65;100.00
5146;BME280;2591;48.144;15.152;2022-11-20T09:13:26;76514.53;;;-144.65;100.00
5146;BME280;2591;48.144;15.152;2022-11-20T09:15:55;76514.53;;;-144.65;100.00
5146;BME280;2591;48.144;15.152;2022-11-20T09:18:24;76512.50;;;-144.65;100.00
5146;BME280;2591;48.144;15.152;2022-11-20T09:20:56;76510.47;;;-144.65;100.00
5146;BME280;2591;48.144;15.152;2022-11-20T09:23:24;76500.28;;;-144.65;100.00
5146;BME280;2591;48.144;15.152;2022-11-20T09:25:56;76498.22;;;-144.65;100.00
5146;BME280;2591;48.144;15.152;2022-11-20T09:28:26;76490.06;;;-144.65;100.00
5146;BME280;2591;48.144;15.152;2022-11-20T09:30:54;76490.06;;;-144.65;100.00
5146;BME280;2591;48.144;15.152;2022-11-20T09:33:21;76486.00;;;-144.65;100.00
5146;BME280;2591;48.144;15.152;2022-11-20T09:35:49;76479.88;;;-144.65;100.00
5146;BME280;2591;48.144;15.152;2022-11-20T09:38:17;76463.56;;;-144.65;100.00
5146;BME280;2591;48.144;15.152;2022-11-20T09:40:49;76451.34;;;-144.65;100.00
5146;BME280;2591;48.144;15.152;2022-11-20T09:43:29;76445.22;;;-144.65;100.00
5146;BME280;2591;48.144;15.152;2022-11-20T09:46:07;76432.97;;;-144.65;100.00
5146;BME280;2591;48.144;15.152;2022-11-20T09:48:48;76437.06;;;-144.65;100.00
5146;BME280;2591;48.144;15.152;2022-11-20T09:51:28;76428.91;;;-144.65;100.00
5146;BME280;2591;48.144;15.152;2022-11-20T09:54:07;76416.69;;;-144.65;100.00
5146;BME280;2591;48.144;15.152;2022-11-20T09:56:42;76375.91;;;-144.65;100.00
5146;BME280;2591;48.144;15.152;2022-11-20T09:59:28;76345.31;;;-144.65;100.00
5146;BME280;2591;48.144;15.152;2022-11-20T10:01:59;76324.91;;;-144.65;100.00
5146;BME280;2591;48.144;15.152;2022-11-20T10:04:30;76326.97;;;-144.65;100.00
5146;BME280;2591;48.144;15.152;2022-11-20T10:07:07;76314.72;;;-144.65;100.00
5146;BME280;2591;48.144;15.152;2022-11-20T10:09:58;76261.72;;;-144.65;100.00
5146;BME280;2591;48.144;15.152;2022-11-20T10:12:34;76237.25;;;-144.65;100.00
5146;BME280;2591;48.144;15.152;2022-11-20T10:15:27;76225.00;;;-144.65;100.00
5146;BME280;2591;48.144;15.152;2022-11-20T10:18:09;76237.25;;;-144.65;100.00
5146;BME280;2591;48.144;15.152;2022-11-20T10:20:45;76247.44;;;-144.65;100.00
5146;BME280;2591;48.144;15.152;2022-11-20T10:23:36;76239.28;;;-144.65;100.00
5146;BME280;2591;48.144;15.152;2022-11-20T10:26:17;76257.63;;;-144.65;100.00
5146;BME280;2591;48.144;15.152;2022-11-20T10:28:52;76265.78;;;-144.65;100.00
5146;BME280;2591;48.144;15.152;2022-11-20T10:31:31;76273.94;;;-144.65;100.00
5146;BME280;2591;48.144;15.152;2022-11-20T10:34:03;76237.25;;;-144.65;100.00
5146;BME280;2591;48.144;15.152;2022-11-20T10:36:43;76218.91;;;-144.65;100.00
5146;BME280;2591;48.144;15.152;2022-11-20T10:39:17;76241.31;;;-144.65;100.00
5146;BME280;2591;48.144;15.152;2022-11-20T10:41:50;76249.47;;;-144.65;100.00
5146;BME280;2591;48.144;15.152;2022-11-20T10:44:20;76222.97;;;-144.65;100.00
5146;BME280;2591;48.144;15.152;2022-11-20T10:47:05;76222.97;;;-144.65;100.00
5146;BME280;2591;48.144;15.152;2022-11-20T10:49:37;76225.00;;;-144.65;100.00
5146;BME280;2591;48.144;15.152;2022-11-20T10:52:11;76212.78;;;-144.65;100.00
5146;BME280;2591;48.144;15.152;2022-11-20T10:54:45;76216.84;;;-144.65;100.00
5146;BME280;2591;48.144;15.152;2022-11-20T10:57:21;76208.69;;;-144.65;100.00
5146;BME280;2591;48.144;15.152;2022-11-20T11:00:05;76192.41;;;-144.65;100.00
5146;BME280;2591;48.144;15.152;2022-11-20T11:02:39;76186.28;;;-144.65;100.00
5146;BME280;2591;48.144;15.152;2022-11-20T11:05:16;76186.28;;;-144.65;100.00
5146;BME280;2591;48.144;15.152;2022-11-20T11:07:48;76174.03;;;-144.65;100.00
5146;BME280;2591;48.144;15.152;2022-11-20T11:10:19;76157.72;;;-144.65;100.00
5146;BME280;2591;48.144;15.152;2022-11-20T11:12:48;76147.53;;;-144.65;100.00
5146;BME280;2591;48.144;15.152;2022-11-20T11:15:25;76139.38;;;-144.65;100.00
5146;BME280;2591;48.144;15.152;2022-11-20T11:17:56;76131.22;;;-144.65;100.00
5146;BME280;2591;48.144;15.152;2022-11-20T11:20:25;76129.19;;;-144.65;100.00
5146;BME280;2591;48.144;15.152;2022-11-20T11:22:55;76119.00;;;-144.65;100.00
5146;BME280;2591;48.144;15.152;2022-11-20T11:25:29;76102.69;;;-144.65;100.00
5146;BME280;2591;48.144;15.152;2022-11-20T11:27:58;76078.22;;;-144.65;100.00
5146;BME280;2591;48.144;15.152;2022-11-20T11:30:28;76078.22;;;-144.65;100.00
5146;BME280;2591;48.144;15.152;2022-11-20T11:33:09;76084.34;;;-144.65;100.00
5146;BME280;2591;48.144;15.152;2022-11-20T11:35:44;76074.16;;;-144.65;100.00
5146;BME280;2591;48.144;15.152;2022-11-20T11:38:21;76061.91;;;-144.65;100.00
5146;BME280;2591;48.144;15.152;2022-11-20T11:40:53;76055.78;;;-144.65;100.00
5146;BME280;2591;48.144;15.152;2022-11-20T11:43:22;76053.75;;;-144.65;100.00
5146;BME280;2591;48.144;15.152;2022-11-20T11:46:24;76037.44;;;-144.65;100.00
5146;BME280;2591;48.144;15.152;2022-11-20T11:49:01;76008.91;;;-144.65;100.00
5146;BME280;2591;48.144;15.152;2022-11-20T11:51:47;75964.06;;;-144.65;100.00
5146;BME280;2591;48.144;15.152;2022-11-20T11:54:24;75935.50;;;-144.65;100.00
5146;BME280;2591;48.144;15.152;2022-11-20T11:56:54;75931.44;;;-144.65;100.00
5146;BME280;2591;48.144;15.152;2022-11-20T11:59:25;75933.47;;;-144.65;100.00
5146;BME280;2591;48.144;15.152;2022-11-20T12:01:57;75939.59;;;-144.65;100.00
5146;BME280;2591;48.144;15.152;2022-11-20T12:04:40;75951.81;;;-144.65;100.00
5146;BME280;2591;48.144;15.152;2022-11-20T12:07:12;75966.09;;;-144.65;100.00
5146;BME280;2591;48.144;15.152;2022-11-20T12:10:03;75980.34;;;-144.65;100.00
5146;BME280;2591;48.144;15.152;2022-11-20T12:12:36;75988.50;;;-144.65;100.00
5146;BME280;2591;48.144;15.152;2022-11-20T12:15:11;75992.59;;;-144.65;100.00
5146;BME280;2591;48.144;15.152;2022-11-20T12:17:40;75996.66;;;-144.65;100.00
5146;BME280;2591;48.144;15.152;2022-11-20T12:20:13;76006.88;;;-144.65;100.00
5146;BME280;2591;48.144;15.152;2022-11-20T12:22:47;76006.88;;;-144.65;100.00
5146;BME280;2591;48.144;15.152;2022-11-20T12:25:22;76012.97;;;-144.65;100.00
5146;BME280;2591;48.144;15.152;2022-11-20T12:28:02;76012.97;;;-144.65;100.00
5146;BME280;2591;48.144;15.152;2022-11-20T12:30:35;76017.06;;;-144.65;100.00
5146;BME280;2591;48.144;15.152;2022-11-20T12:33:40;76015.03;;;-144.65;100.00
5146;BME280;2591;48.144;15.152;2022-11-20T12:36:19;76019.09;;;-144.65;100.00
5146;BME280;2591;48.144;15.152;2022-11-20T12:38:59;76015.03;;;-144.65;100.00
5146;BME280;2591;48.144;15.152;2022-11-20T12:41:43;76017.06;;;-144.65;100.00
5146;BME280;2591;48.144;15.152;2022-11-20T12:44:51;76023.19;;;-144.65;100.00
5146;BME280;2591;48.144;15.152;2022-11-20T12:47:48;76021.13;;;-144.65;100.00
5146;BME280;2591;48.144;15.152;2022-11-20T12:50:25;76025.22;;;-144.65;100.00
5146;BME280;2591;48.144;15.152;2022-11-20T12:53:02;76033.38;;;-144.65;100.00
5146;BME280;2591;48.144;15.152;2022-11-20T12:55:38;76033.38;;;-144.65;100.00
5146;BME280;2591;48.144;15.152;2022-11-20T12:58:13;76041.53;;;-144.65;100.00
5146;BME280;2591;48.144;15.152;2022-11-20T13:00:49;76041.53;;;-144.65;100.00